Sunday, May 27, 2018, 9:55 AM EDT
Back to Local

KHUL, Houlton Int'l Airport

Location: Houlton, ME, United States Lat: 46.117
Local Time: 9:55 AM EDT (13:55 GMT) Lon: -67.8
Time Zone: US/Eastern Elev: 492 ft

Show me the last for .
Show Coded

Time T Td Feel RH Dir Speed Gust Alt SLP Vis Weather Sky Remarks
2018-05-27 08:53 52 40 - 63 210° 8 - 30.29 30.29 10 FEW026 None
2018-05-27 07:53 48 40 47 73 210° 3 - 30.28 30.29 10 CLR 6-hr Min Temp (8am): 34.0°F
6-hr Max Temp (8am): 48.0°F
2018-05-27 06:53 44 39 43 82 Variable 3 - 30.27 30.28 10 CLR None
2018-05-27 05:53 36 35 33 96 250° 3 - 30.25 30.26 10 CLR None
2018-05-27 04:53 36 35 - 96 - Calm - 30.24 30.24 10 CLR None
2018-05-27 03:53 36 35 - 96 - Calm - 30.21 30.22 10 CLR None
2018-05-27 02:53 37 36 - 95 - Calm - 30.19 30.20 10 CLR None
2018-05-27 01:53 38 36 - 92 - Calm - 30.16 30.17 10 CLR 6-hr Min Temp (2am): 35.1°F
6-hr Max Temp (2am): 57.0°F
2018-05-27 00:53 39 36 - 88 - Calm - 30.14 30.15 10 CLR 24-hr Min Temp (1am): 37.0°F
24-hr Max Temp (1am): 68.0°F
2018-05-26 23:53 49 37 45 63 120° 8 - 30.12 30.13 10 CLR None
2018-05-26 22:53 40 38 - 92 - Calm - 30.09 30.10 10 CLR None
2018-05-26 21:53 44 38 - 78 - Calm - 30.06 30.07 10 CLR None
2018-05-26 20:53 50 39 - 65 - Calm - 30.02 30.03 10 CLR None
2018-05-26 19:53 56 35 - 45 10° 6 - 29.98 29.98 10 CLR 6-hr Min Temp (8pm): 55.9°F
6-hr Max Temp (8pm): 68.0°F
2018-05-26 18:53 63 33 - 32 10° 12 - 29.94 29.94 10 CLR None
2018-05-26 17:53 64 33 - 31 360° 13 22 29.90 29.90 10 CLR None
2018-05-26 16:53 65 35 - 32 350° 14 - 29.87 29.87 10 CLR None
2018-05-26 14:53 66 36 - 32 340° 13 23 29.80 29.80 10 CLR None
2018-05-26 13:53 67 42 - 40 10° 14 23 29.77 29.77 10 CLR 6-hr Min Temp (2pm): 59.0°F
6-hr Max Temp (2pm): 68.0°F
2018-05-26 12:53 65 49 - 56 10° 13 - 29.76 29.75 10 FEW041 None
2018-05-26 11:53 64 48 - 55 360° 16 22 29.74 29.74 10 CLR None
2018-05-26 10:53 64 52 - 64 10° 16 22 29.71 29.71 10 CLR None
2018-05-26 10:30 62 56 - 80 40° 7 - 29.71 - 10 SCT009 BKN100 None
2018-05-26 10:26 62 57 - 83 30° 7 - 29.70 - 10 BKN010 BKN100 None

Support USWX by starting your Amazon purchase here.